createdAt,value
2022-11-01T00:00:32.170Z,57.70
2022-11-01T00:02:58.911Z,57.50
2022-11-01T00:05:25.639Z,57.40
2022-11-01T00:07:53.427Z,57.70
2022-11-01T00:10:20.199Z,57.50
2022-11-01T00:12:46.960Z,57.30
2022-11-01T00:15:15.112Z,57.50
2022-11-01T00:17:41.853Z,57.10
2022-11-01T00:20:09.767Z,57.20
2022-11-01T00:22:36.563Z,57.50
2022-11-01T00:25:03.850Z,57.10
2022-11-01T00:27:30.631Z,57.00
2022-11-01T00:29:57.399Z,56.70
2022-11-01T00:32:25.848Z,56.50
2022-11-01T00:34:52.612Z,56.70
2022-11-01T00:37:19.318Z,57.00
2022-11-01T00:39:46.076Z,57.20
2022-11-01T00:42:12.889Z,57.10
2022-11-01T00:44:39.715Z,57.10
2022-11-01T00:47:06.402Z,57.30
2022-11-01T00:49:34.502Z,57.20
2022-11-01T00:52:01.329Z,57.40
2022-11-01T00:54:28.103Z,57.40
2022-11-01T00:56:54.826Z,57.40
2022-11-01T00:59:21.621Z,57.70
2022-11-01T01:01:48.545Z,57.30
2022-11-01T01:04:15.388Z,57.10
2022-11-01T01:06:43.513Z,56.80
2022-11-01T01:09:10.893Z,56.70
2022-11-01T01:11:37.776Z,56.90
2022-11-01T01:14:04.583Z,56.90
2022-11-01T01:16:31.389Z,56.70
2022-11-01T01:18:58.639Z,56.50
2022-11-01T01:21:25.443Z,56.10
2022-11-01T01:23:53.577Z,56.30
2022-11-01T01:26:20.818Z,56.20
2022-11-01T01:28:47.602Z,56.10
2022-11-01T01:31:14.555Z,56.00
2022-11-01T01:33:41.471Z,56.10
2022-11-01T01:36:08.515Z,56.10
2022-11-01T01:38:35.318Z,56.20
2022-11-01T01:41:03.550Z,56.20
2022-11-01T01:43:40.972Z,56.30
2022-11-01T01:46:07.668Z,56.20
2022-11-01T01:48:34.539Z,56.30
2022-11-01T01:51:05.482Z,56.50
2022-11-01T01:53:35.253Z,56.70
2022-11-01T01:56:05.886Z,56.70
2022-11-01T01:58:37.258Z,57.10
2022-11-01T02:01:04.333Z,57.20
2022-11-01T02:03:33.581Z,57.10
2022-11-01T02:06:06.685Z,57.40
2022-11-01T02:08:35.320Z,57.20
2022-11-01T02:11:06.597Z,56.90
2022-11-01T02:13:33.788Z,57.00
2022-11-01T02:16:21.263Z,57.10
2022-11-01T02:18:56.066Z,57.30
2022-11-01T02:21:43.293Z,58.00
2022-11-01T02:24:54.784Z,57.30
2022-11-01T02:27:28.421Z,57.10
2022-11-01T02:30:14.510Z,57.30
2022-11-01T02:33:05.311Z,57.90
2022-11-01T02:35:48.124Z,57.60
2022-11-01T02:38:21.664Z,57.90
2022-11-01T02:40:54.450Z,57.80
2022-11-01T02:43:26.724Z,57.50
2022-11-01T02:45:53.581Z,57.00
2022-11-01T02:48:23.863Z,57.20
2022-11-01T02:50:55.074Z,58.60
2022-11-01T02:53:21.840Z,58.00
2022-11-01T02:55:51.445Z,57.60
2022-11-01T02:58:22.950Z,57.90
2022-11-01T03:00:50.121Z,57.20
2022-11-01T03:03:20.717Z,57.50
2022-11-01T03:06:01.387Z,57.30
2022-11-01T03:08:32.312Z,57.30
2022-11-01T03:11:06.071Z,57.50
2022-11-01T03:13:47.833Z,57.60
2022-11-01T03:16:20.350Z,57.30
2022-11-01T03:19:01.417Z,57.00
2022-11-01T03:21:35.611Z,57.30
2022-11-01T03:24:07.631Z,57.40
2022-11-01T03:26:37.246Z,57.10
2022-11-01T03:29:08.208Z,56.80
2022-11-01T03:31:37.179Z,57.60
2022-11-01T03:34:06.940Z,57.00
2022-11-01T03:36:39.062Z,57.00
2022-11-01T03:39:12.035Z,56.90
2022-11-01T03:41:44.426Z,57.20
2022-11-01T03:44:12.907Z,56.90
2022-11-01T03:46:40.467Z,56.60
2022-11-01T03:49:07.268Z,56.30
2022-11-01T03:51:35.358Z,56.30
2022-11-01T03:54:02.088Z,56.60
2022-11-01T03:56:28.883Z,56.50
2022-11-01T03:58:55.672Z,56.40
2022-11-01T04:01:22.532Z,56.10
2022-11-01T04:03:49.366Z,56.50
2022-11-01T04:06:16.161Z,56.40
2022-11-01T04:08:44.256Z,56.50
2022-11-01T04:11:11.066Z,56.60
2022-11-01T04:13:37.887Z,56.60
2022-11-01T04:16:06.052Z,56.60
2022-11-01T04:18:32.829Z,56.40
2022-11-01T04:21:02.599Z,56.20
2022-11-01T04:23:29.558Z,56.20
2022-11-01T04:25:57.796Z,56.30
2022-11-01T04:28:24.586Z,56.30
2022-11-01T04:30:51.606Z,56.30
2022-11-01T04:33:18.378Z,56.40
2022-11-01T04:35:45.309Z,56.70
2022-11-01T04:38:12.947Z,56.40
2022-11-01T04:40:40.384Z,56.40
2022-11-01T04:43:09.130Z,57.00
2022-11-01T04:45:36.029Z,56.20
2022-11-01T04:48:04.651Z,56.20
2022-11-01T04:50:32.418Z,56.20
2022-11-01T04:52:59.592Z,56.30
2022-11-01T04:55:26.680Z,56.40
2022-11-01T04:57:53.776Z,56.30
2022-11-01T05:00:21.941Z,56.20
2022-11-01T05:02:49.214Z,56.40
2022-11-01T05:05:16.515Z,56.30
2022-11-01T05:07:43.303Z,56.60
2022-11-01T05:10:11.268Z,56.10
2022-11-01T05:12:38.001Z,56.30
2022-11-01T05:15:06.220Z,56.40
2022-11-01T05:17:34.351Z,56.40
2022-11-01T05:20:01.150Z,56.40
2022-11-01T05:22:27.925Z,56.80
2022-11-01T05:24:54.633Z,56.90
2022-11-01T05:27:21.457Z,56.70
2022-11-01T05:29:48.221Z,56.60
2022-11-01T05:32:16.166Z,56.50
2022-11-01T05:34:44.338Z,56.50
2022-11-01T05:37:11.063Z,56.40
2022-11-01T05:39:37.819Z,56.30
2022-11-01T05:42:04.810Z,56.10
2022-11-01T05:44:31.660Z,56.40
2022-11-01T05:46:58.565Z,56.70
2022-11-01T05:49:25.385Z,56.60
2022-11-01T05:51:53.568Z,56.90
2022-11-01T05:54:20.298Z,56.90
2022-11-01T05:56:47.043Z,56.90
2022-11-01T05:59:13.815Z,56.80
2022-11-01T06:01:40.680Z,57.00
2022-11-01T06:04:07.765Z,56.90
2022-11-01T06:06:34.533Z,56.50
2022-11-01T06:09:02.669Z,56.50
2022-11-01T06:11:29.519Z,57.20
2022-11-01T06:13:57.635Z,57.20
2022-11-01T06:16:25.208Z,57.30
2022-11-01T06:18:52.408Z,57.70
2022-11-01T06:21:19.402Z,57.10
2022-11-01T06:23:47.085Z,57.20
2022-11-01T06:26:15.203Z,57.20
2022-11-01T06:28:41.907Z,57.10
2022-11-01T06:31:08.739Z,57.00
2022-11-01T06:33:35.540Z,57.10
2022-11-01T06:36:03.096Z,57.20
2022-11-01T06:38:30.241Z,57.30
2022-11-01T06:40:57.079Z,57.00
2022-11-01T06:43:25.377Z,56.80
2022-11-01T06:45:52.161Z,56.90
2022-11-01T06:48:18.914Z,57.40
2022-11-01T06:50:45.741Z,56.90
2022-11-01T06:53:12.481Z,56.90
2022-11-01T06:55:39.172Z,57.80
2022-11-01T06:58:06.382Z,57.60
2022-11-01T07:00:34.823Z,57.00
2022-11-01T07:03:03.150Z,57.10
2022-11-01T07:05:35.964Z,57.90
2022-11-01T07:08:05.909Z,57.50
2022-11-01T07:10:33.069Z,57.70
2022-11-01T07:13:00.117Z,57.50
2022-11-01T07:15:27.452Z,58.10
2022-11-01T07:18:00.077Z,58.50
2022-11-01T07:20:28.106Z,58.00
2022-11-01T07:22:58.799Z,58.50
2022-11-01T07:25:25.730Z,58.70
2022-11-01T07:27:52.664Z,58.40
2022-11-01T07:30:19.719Z,58.20
2022-11-01T07:32:46.496Z,58.00
2022-11-01T07:35:14.943Z,59.00
2022-11-01T07:37:41.728Z,58.80
2022-11-01T07:40:09.485Z,58.90
2022-11-01T07:42:41.790Z,58.80
2022-11-01T07:45:12.970Z,58.40
2022-11-01T07:47:40.084Z,58.30
2022-11-01T07:50:07.732Z,58.90
2022-11-01T07:52:35.815Z,59.30
2022-11-01T07:55:02.586Z,59.80
2022-11-01T07:57:29.316Z,59.40
2022-11-01T07:59:56.080Z,59.70
2022-11-01T08:02:23.238Z,59.50
2022-11-01T08:04:49.998Z,59.70
2022-11-01T08:07:16.815Z,59.70
2022-11-01T08:09:44.966Z,59.80
2022-11-01T08:12:11.790Z,59.70
2022-11-01T08:14:38.691Z,59.90
2022-11-01T08:17:05.453Z,60.40
2022-11-01T08:19:32.229Z,60.70
2022-11-01T08:21:59.103Z,60.50
2022-11-01T08:24:26.652Z,60.60
2022-11-01T08:26:54.870Z,60.70
2022-11-01T08:29:21.774Z,61.40
2022-11-01T08:31:48.512Z,61.90
2022-11-01T08:34:17.061Z,62.00
2022-11-01T08:36:44.221Z,61.20
2022-11-01T08:39:11.066Z,61.00
2022-11-01T08:41:37.917Z,61.10
2022-11-01T08:44:06.259Z,61.40
2022-11-01T08:46:33.011Z,61.20
2022-11-01T08:48:59.753Z,61.10
2022-11-01T08:51:27.200Z,61.50
2022-11-01T08:53:54.901Z,61.60
2022-11-01T08:56:21.648Z,61.20
2022-11-01T08:58:48.941Z,60.80
2022-11-01T09:01:17.376Z,61.30
2022-11-01T09:03:44.190Z,61.30
2022-11-01T09:06:10.975Z,61.70
2022-11-01T09:08:37.700Z,61.30
2022-11-01T09:11:04.717Z,61.40
2022-11-01T09:13:31.427Z,61.30
2022-11-01T09:16:01.480Z,61.00
2022-11-01T09:18:30.757Z,61.00
2022-11-01T09:20:57.503Z,61.50
2022-11-01T09:23:24.226Z,60.70
2022-11-01T09:25:50.956Z,61.10
2022-11-01T09:28:17.706Z,61.30
2022-11-01T09:30:49.664Z,61.40
2022-11-01T09:33:16.818Z,60.90
2022-11-01T09:35:52.199Z,61.80
2022-11-01T09:38:22.100Z,61.90
2022-11-01T09:41:00.478Z,61.20
2022-11-01T09:43:31.918Z,61.50
2022-11-01T09:46:00.616Z,61.30
2022-11-01T09:48:30.369Z,61.50
2022-11-01T09:51:00.860Z,61.50
2022-11-01T09:53:29.291Z,62.20
2022-11-01T09:56:01.326Z,62.30
2022-11-01T09:58:37.340Z,60.90
2022-11-01T10:01:15.807Z,60.80
2022-11-01T10:03:59.577Z,61.30
2022-11-01T10:06:31.449Z,61.10
2022-11-01T10:09:09.267Z,60.90
2022-11-01T10:11:47.591Z,61.20
2022-11-01T10:14:25.447Z,61.20
2022-11-01T10:17:03.553Z,60.70
2022-11-01T10:19:31.661Z,60.90
2022-11-01T10:22:06.320Z,61.10
2022-11-01T10:24:38.962Z,61.50
2022-11-01T10:27:15.201Z,61.20
2022-11-01T10:29:47.382Z,61.20
2022-11-01T10:32:25.972Z,61.00
2022-11-01T10:34:55.790Z,60.80
2022-11-01T10:37:29.792Z,60.70
2022-11-01T10:40:04.637Z,61.40
2022-11-01T10:42:35.056Z,61.30
2022-11-01T10:45:05.141Z,60.80
2022-11-01T10:47:32.474Z,62.20
2022-11-01T10:50:07.018Z,61.60
2022-11-01T10:52:45.337Z,61.60
2022-11-01T10:55:14.266Z,62.10
2022-11-01T10:57:44.291Z,62.10
2022-11-01T11:00:17.390Z,62.20
2022-11-01T11:02:48.629Z,62.50
2022-11-01T11:05:16.440Z,62.20
2022-11-01T11:07:45.518Z,62.20
2022-11-01T11:10:22.762Z,62.10
2022-11-01T11:12:53.470Z,61.80
2022-11-01T11:15:25.594Z,61.70
2022-11-01T11:17:57.319Z,60.70
2022-11-01T11:20:25.932Z,62.10
2022-11-01T11:22:54.334Z,61.50
2022-11-01T11:25:27.774Z,61.40
2022-11-01T11:27:54.575Z,61.50
2022-11-01T11:30:29.735Z,61.10
2022-11-01T11:32:56.639Z,61.20
2022-11-01T11:35:23.872Z,61.20
2022-11-01T11:37:55.627Z,61.10
2022-11-01T11:40:23.519Z,61.00
2022-11-01T11:42:51.877Z,60.50
2022-11-01T11:45:25.960Z,60.30
2022-11-01T11:47:53.233Z,60.30
2022-11-01T11:50:29.102Z,60.70
2022-11-01T11:53:00.472Z,59.70
2022-11-01T11:55:33.891Z,59.30
2022-11-01T11:58:01.960Z,59.30
2022-11-01T12:00:29.679Z,59.20
2022-11-01T12:02:56.556Z,58.80
2022-11-01T12:05:23.504Z,58.20
2022-11-01T12:07:51.879Z,58.10
2022-11-01T12:10:31.907Z,57.50
2022-11-01T12:12:59.324Z,56.50
2022-11-01T12:15:28.468Z,55.70
2022-11-01T12:17:55.825Z,55.80
2022-11-01T12:20:23.745Z,55.80
2022-11-01T12:22:54.612Z,55.60
2022-11-01T12:25:24.196Z,55.30
2022-11-01T12:28:02.848Z,55.30
2022-11-01T12:30:33.451Z,55.40
2022-11-01T12:33:03.650Z,55.60
2022-11-01T12:35:34.370Z,55.30
2022-11-01T12:38:18.570Z,55.00
2022-11-01T12:40:49.001Z,54.40
2022-11-01T12:43:22.511Z,54.50
2022-11-01T12:45:53.160Z,54.70
2022-11-01T12:48:25.511Z,53.80
2022-11-01T12:50:56.740Z,53.10
2022-11-01T12:53:29.221Z,53.70
2022-11-01T12:55:57.993Z,52.90
2022-11-01T12:58:28.922Z,53.10
2022-11-01T13:01:23.690Z,53.60
2022-11-01T13:04:00.156Z,52.80
2022-11-01T13:06:52.879Z,53.30
2022-11-01T13:09:26.459Z,53.10
2022-11-01T13:11:59.461Z,53.50
2022-11-01T13:14:46.183Z,53.50
2022-11-01T13:17:32.108Z,52.70
2022-11-01T13:20:09.970Z,52.20
2022-11-01T13:22:46.777Z,52.60
2022-11-01T13:25:21.242Z,51.70
2022-11-01T13:27:55.409Z,51.20
2022-11-01T13:30:24.048Z,50.80
2022-11-01T13:32:58.804Z,51.20
2022-11-01T13:35:42.679Z,49.70
2022-11-01T13:38:20.898Z,50.40
2022-11-01T13:40:55.867Z,50.20
2022-11-01T13:43:27.130Z,50.30
2022-11-01T13:46:30.030Z,50.50
2022-11-01T13:49:29.381Z,49.90
2022-11-01T13:52:00.481Z,49.80
2022-11-01T13:54:33.286Z,50.00
2022-11-01T13:57:09.047Z,49.20
2022-11-01T13:59:45.019Z,50.20
2022-11-01T14:02:41.943Z,50.30
2022-11-01T14:05:11.986Z,49.80
2022-11-01T14:07:59.223Z,50.20
2022-11-01T14:10:45.792Z,49.80
2022-11-01T14:13:16.135Z,50.30
2022-11-01T14:16:02.210Z,49.90
2022-11-01T14:18:50.462Z,50.50
2022-11-01T14:21:29.093Z,50.60
2022-11-01T14:24:05.550Z,51.00
2022-11-01T14:26:48.362Z,51.10
2022-11-01T14:29:15.479Z,51.60
2022-11-01T14:31:45.868Z,51.30
2022-11-01T14:34:24.307Z,51.40
2022-11-01T14:36:57.534Z,51.00
2022-11-01T14:39:31.594Z,51.60
2022-11-01T14:42:01.294Z,51.40
2022-11-01T14:44:31.773Z,51.50
2022-11-01T14:47:01.468Z,51.20
2022-11-01T14:49:33.648Z,51.50
2022-11-01T14:52:06.641Z,51.60
2022-11-01T14:54:40.941Z,51.70
2022-11-01T14:57:20.886Z,51.80
2022-11-01T14:59:47.702Z,51.70
2022-11-01T15:02:14.677Z,52.00
2022-11-01T15:04:43.877Z,52.40
2022-11-01T15:07:19.781Z,52.80
2022-11-01T15:09:56.036Z,53.70
2022-11-01T15:12:23.916Z,53.20
2022-11-01T15:14:51.537Z,53.50
2022-11-01T15:17:21.333Z,53.30
2022-11-01T15:19:49.880Z,53.40
2022-11-01T15:22:19.685Z,53.40
2022-11-01T15:24:50.489Z,53.60
2022-11-01T15:27:19.851Z,53.70
2022-11-01T15:29:47.373Z,53.80
2022-11-01T15:32:22.946Z,53.80
2022-11-01T15:34:52.441Z,53.80
2022-11-01T15:37:22.641Z,53.90
2022-11-01T15:39:50.021Z,53.90
2022-11-01T15:42:20.018Z,53.80
2022-11-01T15:44:46.719Z,53.60
2022-11-01T15:47:17.488Z,53.60
2022-11-01T15:49:49.028Z,54.20
2022-11-01T15:52:18.504Z,53.90
2022-11-01T15:54:52.401Z,53.60
2022-11-01T15:57:22.504Z,53.70
2022-11-01T15:59:55.707Z,53.60
2022-11-01T16:02:28.699Z,53.80
2022-11-01T16:04:56.592Z,53.80
2022-11-01T16:07:25.068Z,53.90
2022-11-01T16:09:56.985Z,54.00
2022-11-01T16:12:26.556Z,54.00
2022-11-01T16:14:55.988Z,54.10
2022-11-01T16:17:25.435Z,54.10
2022-11-01T16:19:52.632Z,54.10
2022-11-01T16:22:28.726Z,54.00
2022-11-01T16:25:16.421Z,54.00
2022-11-01T16:27:54.791Z,54.00
2022-11-01T16:30:43.236Z,54.10
2022-11-01T16:33:20.576Z,54.10
2022-11-01T16:35:48.868Z,54.30
2022-11-01T16:38:22.407Z,54.30
2022-11-01T16:40:52.569Z,54.10
2022-11-01T16:43:19.381Z,54.20
2022-11-01T16:45:46.203Z,54.30
2022-11-01T16:48:25.408Z,54.40
2022-11-01T16:50:53.218Z,55.00
2022-11-01T16:53:20.550Z,54.50
2022-11-01T16:55:47.805Z,54.60
2022-11-01T16:58:17.742Z,54.50
2022-11-01T17:00:52.282Z,54.60
2022-11-01T17:03:19.412Z,54.40
2022-11-01T17:05:46.416Z,54.50
2022-11-01T17:08:13.207Z,54.60
2022-11-01T17:10:40.106Z,54.70
2022-11-01T17:13:06.823Z,54.80
2022-11-01T17:15:39.776Z,54.80
2022-11-01T17:18:09.717Z,54.80
2022-11-01T17:20:38.248Z,54.80
2022-11-01T17:23:04.952Z,54.90
2022-11-01T17:25:31.716Z,54.80
2022-11-01T17:27:58.473Z,54.90
2022-11-01T17:30:25.352Z,54.80
2022-11-01T17:32:53.447Z,54.80
2022-11-01T17:35:22.837Z,54.80
2022-11-01T17:37:52.612Z,55.60
2022-11-01T17:40:21.662Z,54.80
2022-11-01T17:42:48.767Z,54.80
2022-11-01T17:45:15.689Z,54.80
2022-11-01T17:47:44.315Z,54.80
2022-11-01T17:50:14.100Z,54.80
2022-11-01T17:52:41.056Z,54.80
2022-11-01T17:55:09.151Z,54.70
2022-11-01T17:57:35.996Z,54.70
2022-11-01T18:00:03.759Z,54.70
2022-11-01T18:02:32.072Z,54.70
2022-11-01T18:04:59.006Z,54.70
2022-11-01T18:07:31.896Z,54.60
2022-11-01T18:09:59.174Z,54.60
2022-11-01T18:12:37.239Z,54.80
2022-11-01T18:15:16.431Z,54.60
2022-11-01T18:17:54.098Z,54.50
2022-11-01T18:20:29.722Z,54.70
2022-11-01T18:23:03.356Z,54.70
2022-11-01T18:25:36.208Z,54.60
2022-11-01T18:28:11.256Z,54.80
2022-11-01T18:30:38.019Z,54.80
2022-11-01T18:33:10.076Z,54.90
2022-11-01T18:35:41.132Z,54.80
2022-11-01T18:38:13.909Z,54.80
2022-11-01T18:40:53.791Z,54.70
2022-11-01T18:43:20.808Z,54.80
2022-11-01T18:46:18.776Z,54.90
2022-11-01T18:48:34.398Z,54.80
2022-11-01T18:51:05.000Z,55.00
2022-11-01T18:53:33.905Z,54.90
2022-11-01T18:56:18.446Z,55.20
2022-11-01T18:58:45.403Z,55.00
2022-11-01T19:01:15.844Z,55.20
2022-11-01T19:03:42.768Z,55.10
2022-11-01T19:06:17.734Z,55.20
2022-11-01T19:08:51.368Z,55.50
2022-11-01T19:11:18.138Z,55.70
2022-11-01T19:13:45.922Z,55.70
2022-11-01T19:16:12.884Z,55.70
2022-11-01T19:18:43.205Z,55.70
2022-11-01T19:21:15.672Z,55.70
2022-11-01T19:23:44.327Z,55.80
2022-11-01T19:26:20.467Z,55.80
2022-11-01T19:28:49.595Z,56.00
2022-11-01T19:31:24.826Z,56.10
2022-11-01T19:33:53.488Z,56.20
2022-11-01T19:36:21.616Z,56.10
2022-11-01T19:38:49.057Z,56.20
2022-11-01T19:41:20.193Z,56.20
2022-11-01T19:43:46.940Z,56.40
2022-11-01T19:46:16.606Z,56.50
2022-11-01T19:48:43.503Z,56.20
2022-11-01T19:51:16.675Z,56.00
2022-11-01T19:53:43.525Z,55.90
2022-11-01T19:56:14.166Z,55.90
2022-11-01T19:58:44.133Z,56.50
2022-11-01T20:01:42.061Z,55.80
2022-11-01T20:04:24.457Z,55.50
2022-11-01T20:06:56.097Z,55.60
2022-11-01T20:09:24.824Z,55.50
2022-11-01T20:11:52.043Z,55.40
2022-11-01T20:14:20.322Z,55.30
2022-11-01T20:16:47.267Z,55.20
2022-11-01T20:19:17.484Z,55.20
2022-11-01T20:21:45.069Z,55.10
2022-11-01T20:24:11.961Z,55.10
2022-11-01T20:26:39.269Z,54.90
2022-11-01T20:29:05.971Z,54.90
2022-11-01T20:31:34.072Z,54.90
2022-11-01T20:34:00.831Z,55.00
2022-11-01T20:36:27.981Z,55.00
2022-11-01T20:38:54.762Z,55.70
2022-11-01T20:41:21.822Z,55.20
2022-11-01T20:43:49.052Z,55.10
2022-11-01T20:46:15.869Z,55.30
2022-11-01T20:48:44.472Z,55.20
2022-11-01T20:51:11.279Z,55.20
2022-11-01T20:53:37.997Z,55.20
2022-11-01T20:56:05.299Z,55.20
2022-11-01T20:58:32.270Z,55.10
2022-11-01T21:00:59.028Z,55.10
2022-11-01T21:03:27.714Z,55.10
2022-11-01T21:05:55.857Z,55.80
2022-11-01T21:08:24.674Z,55.10
2022-11-01T21:10:53.940Z,55.10
2022-11-01T21:13:25.521Z,55.00
2022-11-01T21:15:53.365Z,54.90
2022-11-01T21:18:33.040Z,55.00
2022-11-01T21:21:17.065Z,54.90
2022-11-01T21:23:44.464Z,55.00
2022-11-01T21:26:16.169Z,54.80
2022-11-01T21:28:46.318Z,55.00
2022-11-01T21:31:28.159Z,54.80
2022-11-01T21:33:57.363Z,54.60
2022-11-01T21:36:33.185Z,54.70
2022-11-01T21:39:01.195Z,54.50
2022-11-01T21:41:32.833Z,54.80
2022-11-01T21:44:14.412Z,54.50
2022-11-01T21:46:47.550Z,54.60
2022-11-01T21:49:24.548Z,54.70
2022-11-01T21:51:53.389Z,55.10
2022-11-01T21:54:20.243Z,54.40
2022-11-01T21:56:46.943Z,54.20
2022-11-01T21:59:13.935Z,54.10
2022-11-01T22:01:43.163Z,53.90
2022-11-01T22:04:09.994Z,53.80
2022-11-01T22:06:36.814Z,54.00
2022-11-01T22:09:05.772Z,54.00
2022-11-01T22:11:32.859Z,54.00
2022-11-01T22:13:59.657Z,53.80
2022-11-01T22:16:26.919Z,53.80
2022-11-01T22:18:53.771Z,53.80
2022-11-01T22:21:20.535Z,53.70
2022-11-01T22:23:47.318Z,53.70
2022-11-01T22:26:15.510Z,53.80
2022-11-01T22:28:42.479Z,53.70
2022-11-01T22:31:09.332Z,53.60
2022-11-01T22:33:36.076Z,53.70
2022-11-01T22:36:03.346Z,53.70
2022-11-01T22:38:34.812Z,53.60
2022-11-01T22:41:10.773Z,53.60
2022-11-01T22:43:41.225Z,53.50
2022-11-01T22:46:20.625Z,53.50
2022-11-01T22:48:48.561Z,53.40
2022-11-01T22:51:24.737Z,53.50
2022-11-01T22:53:53.938Z,53.50
2022-11-01T22:56:21.151Z,53.60
2022-11-01T22:58:50.923Z,53.60
2022-11-01T23:01:25.816Z,53.70
2022-11-01T23:03:57.532Z,53.60
2022-11-01T23:06:32.186Z,54.20
2022-11-01T23:09:09.342Z,53.60
2022-11-01T23:11:36.191Z,53.60
2022-11-01T23:14:12.417Z,53.70
2022-11-01T23:16:43.846Z,53.50
2022-11-01T23:19:13.241Z,53.60
2022-11-01T23:21:40.180Z,53.80
2022-11-01T23:24:07.768Z,53.70
2022-11-01T23:26:34.768Z,53.50
2022-11-01T23:29:01.892Z,53.50
2022-11-01T23:31:30.113Z,53.60
2022-11-01T23:33:56.867Z,54.10
2022-11-01T23:36:26.759Z,53.50
2022-11-01T23:38:56.681Z,53.70
2022-11-01T23:41:27.096Z,53.50
2022-11-01T23:43:56.732Z,53.50
2022-11-01T23:46:25.086Z,53.70
2022-11-01T23:48:59.854Z,53.70
2022-11-01T23:51:28.083Z,53.70
2022-11-01T23:53:55.951Z,53.70
2022-11-01T23:56:23.381Z,53.70
2022-11-01T23:58:54.968Z,53.70
